Airfield :
LOGIN :

Register | Disclaimer

   EN    FR    IT 

 










Legend :    VFR   Marginal VFR   IFR   Intensive IFR   Very Intensive IFR
Visi :
Ceiling :
>= 8 km
>= 3000ft
5 to 8 km
1000 to 3000 ft
1500m to 5 km
500 to 1000 ft
800 to 1500m
200 to 500 ft
< 800m
< 200 ft
Symbols :   Thunderstorms  Fog  Heavy snow  Heavy precipitations  Wind > 20 kt
SIGMETs :     Misc.  Thunderstorms  Icing  Turbulence  Mountain Waves  Volcanic Ashes






- Airport Elevation : 309 ft
- IATA code : FNI


LFTW - Nîmes Garons

CURRENT METAR :
  • 081000Z AUTO 01005KT 9999 FEW029 SCT037 BKN050 04/01 Q1010 NOSIG

EXPIRED METARs :
  • 080930Z AUTO 01005KT 330V040 CAVOK 03/00 Q1010 NOSIG
  • 080900Z AUTO 36004KT CAVOK 02/00 Q1010 NOSIG
  • 080830Z AUTO 35004KT CAVOK 02/M00 Q1010 NOSIG
  • 080800Z AUTO 36004KT CAVOK 02/M01 Q1010 NOSIG
  • 080730Z AUTO 01007KT CAVOK 01/M01 Q1010 NOSIG

TAF TAF LFTW
Valid from the 08 at 09:00 until the 09 at 09:00 UTC


080800Z 0809/0909 02006KT 9999 SCT035
BECMG 0815/0817 BKN012 OVC020
BECMG 0817/0819 RA BKN007 OVC015
BECMG 0820/0822 2000 RA BKN002 OVC020



MET'MAP, your aeronautical weather chart ! - Copyright ORBIFLY December 2007 - Disclaimer

ORBIFLY MET'MAP TEAM :

Programming & Development : Alexandra Zaïnal
Original concept : Baudouin d'Aumeries
Technical & hardware support : Manuel Goepfert
Assistance : Marc-Olivier Méhu




SOURCES & CREDITS :

   NOAA